sensor_id;sensor_type;location;lat;lon;timestamp;P1;durP1;ratioP1;P2;durP2;ratioP2
39970;SDS011;35425;51.142;17.178;2023-01-29T00:00:22;4.47;;;3.03;;
39970;SDS011;35425;51.142;17.178;2023-01-29T00:02:48;4.10;;;2.88;;
39970;SDS011;35425;51.142;17.178;2023-01-29T00:05:15;4.97;;;3.22;;
39970;SDS011;35425;51.142;17.178;2023-01-29T00:07:54;4.25;;;3.05;;
39970;SDS011;35425;51.142;17.178;2023-01-29T00:10:20;4.75;;;3.03;;
39970;SDS011;35425;51.142;17.178;2023-01-29T00:12:47;4.22;;;2.70;;
39970;SDS011;35425;51.142;17.178;2023-01-29T00:15:13;4.40;;;2.90;;
39970;SDS011;35425;51.142;17.178;2023-01-29T00:17:41;4.93;;;2.90;;
39970;SDS011;35425;51.142;17.178;2023-01-29T00:20:08;5.28;;;3.30;;
39970;SDS011;35425;51.142;17.178;2023-01-29T00:22:35;3.88;;;2.75;;
39970;SDS011;35425;51.142;17.178;2023-01-29T00:25:01;4.85;;;3.22;;
39970;SDS011;35425;51.142;17.178;2023-01-29T00:27:28;3.70;;;2.70;;
39970;SDS011;35425;51.142;17.178;2023-01-29T00:29:54;5.53;;;3.13;;
39970;SDS011;35425;51.142;17.178;2023-01-29T00:32:41;4.07;;;2.90;;
39970;SDS011;35425;51.142;17.178;2023-01-29T00:35:13;3.97;;;2.90;;
39970;SDS011;35425;51.142;17.178;2023-01-29T00:37:39;3.92;;;2.88;;
39970;SDS011;35425;51.142;17.178;2023-01-29T00:40:06;4.60;;;2.80;;
39970;SDS011;35425;51.142;17.178;2023-01-29T00:42:34;3.67;;;2.47;;
39970;SDS011;35425;51.142;17.178;2023-01-29T00:45:19;4.07;;;2.53;;
39970;SDS011;35425;51.142;17.178;2023-01-29T00:47:45;3.90;;;2.60;;
39970;SDS011;35425;51.142;17.178;2023-01-29T00:50:12;4.47;;;2.90;;
39970;SDS011;35425;51.142;17.178;2023-01-29T00:52:39;3.33;;;2.53;;
39970;SDS011;35425;51.142;17.178;2023-01-29T00:55:09;3.60;;;2.50;;
39970;SDS011;35425;51.142;17.178;2023-01-29T00:57:35;4.03;;;2.55;;
39970;SDS011;35425;51.142;17.178;2023-01-29T01:00:06;3.90;;;2.53;;
39970;SDS011;35425;51.142;17.178;2023-01-29T01:02:33;2.83;;;2.15;;
39970;SDS011;35425;51.142;17.178;2023-01-29T01:05:18;3.95;;;2.50;;
39970;SDS011;35425;51.142;17.178;2023-01-29T01:07:45;3.10;;;2.40;;
39970;SDS011;35425;51.142;17.178;2023-01-29T01:10:16;4.18;;;2.63;;
39970;SDS011;35425;51.142;17.178;2023-01-29T01:12:52;3.88;;;2.50;;
39970;SDS011;35425;51.142;17.178;2023-01-29T01:15:19;4.18;;;2.70;;
39970;SDS011;35425;51.142;17.178;2023-01-29T01:17:46;4.47;;;2.58;;
39970;SDS011;35425;51.142;17.178;2023-01-29T01:20:14;3.83;;;3.03;;
39970;SDS011;35425;51.142;17.178;2023-01-29T01:22:41;3.80;;;2.55;;
39970;SDS011;35425;51.142;17.178;2023-01-29T01:25:07;3.40;;;2.50;;
39970;SDS011;35425;51.142;17.178;2023-01-29T01:27:34;3.45;;;2.42;;
39970;SDS011;35425;51.142;17.178;2023-01-29T01:30:03;3.63;;;2.40;;
39970;SDS011;35425;51.142;17.178;2023-01-29T01:32:29;3.70;;;2.40;;
39970;SDS011;35425;51.142;17.178;2023-01-29T01:34:56;4.18;;;2.33;;
39970;SDS011;35425;51.142;17.178;2023-01-29T01:37:22;3.75;;;2.42;;
39970;SDS011;35425;51.142;17.178;2023-01-29T01:39:49;3.80;;;2.33;;
39970;SDS011;35425;51.142;17.178;2023-01-29T01:42:15;3.35;;;2.17;;
39970;SDS011;35425;51.142;17.178;2023-01-29T01:44:50;3.42;;;2.30;;
39970;SDS011;35425;51.142;17.178;2023-01-29T01:47:17;3.08;;;1.98;;
39970;SDS011;35425;51.142;17.178;2023-01-29T01:49:45;2.90;;;2.28;;
39970;SDS011;35425;51.142;17.178;2023-01-29T01:52:12;2.85;;;2.10;;
39970;SDS011;35425;51.142;17.178;2023-01-29T01:54:41;3.75;;;2.33;;
39970;SDS011;35425;51.142;17.178;2023-01-29T01:57:09;2.53;;;1.90;;
39970;SDS011;35425;51.142;17.178;2023-01-29T01:59:47;3.92;;;2.20;;
39970;SDS011;35425;51.142;17.178;2023-01-29T02:02:17;4.40;;;2.33;;
39970;SDS011;35425;51.142;17.178;2023-01-29T02:05:02;2.80;;;2.13;;
39970;SDS011;35425;51.142;17.178;2023-01-29T02:07:47;2.95;;;2.03;;
39970;SDS011;35425;51.142;17.178;2023-01-29T02:10:43;3.15;;;2.03;;
39970;SDS011;35425;51.142;17.178;2023-01-29T02:13:10;3.38;;;2.05;;
39970;SDS011;35425;51.142;17.178;2023-01-29T02:15:37;3.05;;;2.10;;
39970;SDS011;35425;51.142;17.178;2023-01-29T02:18:17;3.95;;;2.40;;
39970;SDS011;35425;51.142;17.178;2023-01-29T02:20:59;2.75;;;2.03;;
39970;SDS011;35425;51.142;17.178;2023-01-29T02:23:51;3.20;;;2.28;;
39970;SDS011;35425;51.142;17.178;2023-01-29T02:26:39;3.00;;;2.22;;
39970;SDS011;35425;51.142;17.178;2023-01-29T02:29:12;2.58;;;1.90;;
39970;SDS011;35425;51.142;17.178;2023-01-29T02:31:52;2.55;;;2.00;;
39970;SDS011;35425;51.142;17.178;2023-01-29T02:34:45;2.50;;;1.80;;
39970;SDS011;35425;51.142;17.178;2023-01-29T02:37:29;3.00;;;1.90;;
39970;SDS011;35425;51.142;17.178;2023-01-29T02:42:50;2.78;;;2.15;;
39970;SDS011;35425;51.142;17.178;2023-01-29T02:45:23;3.30;;;1.80;;
39970;SDS011;35425;51.142;17.178;2023-01-29T02:47:56;4.10;;;2.22;;
39970;SDS011;35425;51.142;17.178;2023-01-29T02:50:58;3.00;;;2.00;;
39970;SDS011;35425;51.142;17.178;2023-01-29T02:53:41;2.80;;;2.08;;
39970;SDS011;35425;51.142;17.178;2023-01-29T02:56:11;2.85;;;2.20;;
39970;SDS011;35425;51.142;17.178;2023-01-29T02:58:40;3.20;;;2.00;;
39970;SDS011;35425;51.142;17.178;2023-01-29T03:01:30;3.30;;;2.00;;
39970;SDS011;35425;51.142;17.178;2023-01-29T03:03:56;3.45;;;2.10;;
39970;SDS011;35425;51.142;17.178;2023-01-29T03:06:36;2.50;;;1.90;;
39970;SDS011;35425;51.142;17.178;2023-01-29T03:09:04;2.20;;;1.73;;
39970;SDS011;35425;51.142;17.178;2023-01-29T03:11:34;2.17;;;1.70;;
39970;SDS011;35425;51.142;17.178;2023-01-29T03:14:03;2.67;;;2.10;;
39970;SDS011;35425;51.142;17.178;2023-01-29T03:16:38;3.63;;;1.90;;
39970;SDS011;35425;51.142;17.178;2023-01-29T03:21:51;2.50;;;1.90;;
39970;SDS011;35425;51.142;17.178;2023-01-29T03:27:10;2.78;;;1.90;;
39970;SDS011;35425;51.142;17.178;2023-01-29T03:29:56;3.40;;;1.85;;
39970;SDS011;35425;51.142;17.178;2023-01-29T03:32:42;2.78;;;2.08;;
39970;SDS011;35425;51.142;17.178;2023-01-29T03:35:09;3.00;;;2.28;;
39970;SDS011;35425;51.142;17.178;2023-01-29T03:37:45;3.30;;;2.20;;
39970;SDS011;35425;51.142;17.178;2023-01-29T03:40:12;3.17;;;2.08;;
39970;SDS011;35425;51.142;17.178;2023-01-29T03:50:27;2.50;;;1.75;;
39970;SDS011;35425;51.142;17.178;2023-01-29T03:55:48;3.08;;;2.10;;
39970;SDS011;35425;51.142;17.178;2023-01-29T04:00:57;2.80;;;2.20;;
39970;SDS011;35425;51.142;17.178;2023-01-29T04:06:01;1.92;;;1.70;;
39970;SDS011;35425;51.142;17.178;2023-01-29T04:08:37;3.10;;;2.15;;
39970;SDS011;35425;51.142;17.178;2023-01-29T04:11:08;3.45;;;2.10;;
39970;SDS011;35425;51.142;17.178;2023-01-29T04:13:36;3.05;;;2.20;;
39970;SDS011;35425;51.142;17.178;2023-01-29T04:16:04;2.15;;;1.80;;
39970;SDS011;35425;51.142;17.178;2023-01-29T04:18:32;3.10;;;2.20;;
39970;SDS011;35425;51.142;17.178;2023-01-29T04:20:58;2.63;;;2.08;;
39970;SDS011;35425;51.142;17.178;2023-01-29T04:23:26;2.72;;;2.00;;
39970;SDS011;35425;51.142;17.178;2023-01-29T04:28:51;2.50;;;1.92;;
39970;SDS011;35425;51.142;17.178;2023-01-29T04:31:20;3.30;;;1.92;;
39970;SDS011;35425;51.142;17.178;2023-01-29T04:39:39;2.55;;;2.13;;
39970;SDS011;35425;51.142;17.178;2023-01-29T04:42:11;3.45;;;2.10;;
39970;SDS011;35425;51.142;17.178;2023-01-29T04:44:53;3.65;;;1.95;;
39970;SDS011;35425;51.142;17.178;2023-01-29T04:50:28;2.90;;;1.88;;
39970;SDS011;35425;51.142;17.178;2023-01-29T04:52:59;2.15;;;1.70;;
39970;SDS011;35425;51.142;17.178;2023-01-29T04:55:37;2.97;;;1.92;;
39970;SDS011;35425;51.142;17.178;2023-01-29T04:58:12;2.05;;;1.70;;
39970;SDS011;35425;51.142;17.178;2023-01-29T05:00:43;2.00;;;1.60;;
39970;SDS011;35425;51.142;17.178;2023-01-29T05:03:11;2.10;;;1.70;;
39970;SDS011;35425;51.142;17.178;2023-01-29T05:05:38;2.30;;;1.75;;
39970;SDS011;35425;51.142;17.178;2023-01-29T05:08:06;2.20;;;1.75;;
39970;SDS011;35425;51.142;17.178;2023-01-29T05:10:33;2.58;;;2.00;;
39970;SDS011;35425;51.142;17.178;2023-01-29T05:13:00;2.33;;;1.70;;
39970;SDS011;35425;51.142;17.178;2023-01-29T05:15:42;2.25;;;1.98;;
39970;SDS011;35425;51.142;17.178;2023-01-29T05:18:10;2.40;;;1.80;;
39970;SDS011;35425;51.142;17.178;2023-01-29T05:20:37;1.80;;;1.60;;
39970;SDS011;35425;51.142;17.178;2023-01-29T05:23:07;2.55;;;1.75;;
39970;SDS011;35425;51.142;17.178;2023-01-29T05:25:34;2.83;;;1.90;;
39970;SDS011;35425;51.142;17.178;2023-01-29T05:28:01;2.72;;;1.98;;
39970;SDS011;35425;51.142;17.178;2023-01-29T05:30:31;1.95;;;1.50;;
39970;SDS011;35425;51.142;17.178;2023-01-29T05:32:58;2.83;;;1.92;;
39970;SDS011;35425;51.142;17.178;2023-01-29T05:35:25;2.30;;;1.95;;
39970;SDS011;35425;51.142;17.178;2023-01-29T05:37:56;2.90;;;1.98;;
39970;SDS011;35425;51.142;17.178;2023-01-29T05:40:23;2.70;;;1.58;;
39970;SDS011;35425;51.142;17.178;2023-01-29T05:42:49;2.75;;;2.00;;
39970;SDS011;35425;51.142;17.178;2023-01-29T05:45:17;2.55;;;1.77;;
39970;SDS011;35425;51.142;17.178;2023-01-29T05:47:44;2.63;;;1.83;;
39970;SDS011;35425;51.142;17.178;2023-01-29T05:50:10;2.33;;;1.80;;
39970;SDS011;35425;51.142;17.178;2023-01-29T05:52:37;3.05;;;2.17;;
39970;SDS011;35425;51.142;17.178;2023-01-29T05:55:04;2.65;;;1.90;;
39970;SDS011;35425;51.142;17.178;2023-01-29T05:57:33;2.55;;;1.85;;
39970;SDS011;35425;51.142;17.178;2023-01-29T05:59:59;3.00;;;2.10;;
39970;SDS011;35425;51.142;17.178;2023-01-29T06:02:30;3.58;;;2.20;;
39970;SDS011;35425;51.142;17.178;2023-01-29T06:04:57;2.47;;;1.92;;
39970;SDS011;35425;51.142;17.178;2023-01-29T06:07:26;2.70;;;2.22;;
39970;SDS011;35425;51.142;17.178;2023-01-29T06:09:53;2.78;;;2.10;;
39970;SDS011;35425;51.142;17.178;2023-01-29T06:12:20;2.60;;;2.22;;
39970;SDS011;35425;51.142;17.178;2023-01-29T06:14:46;2.80;;;2.08;;
39970;SDS011;35425;51.142;17.178;2023-01-29T06:17:13;3.50;;;2.17;;
39970;SDS011;35425;51.142;17.178;2023-01-29T06:19:39;2.70;;;2.00;;
39970;SDS011;35425;51.142;17.178;2023-01-29T06:22:06;2.80;;;2.13;;
39970;SDS011;35425;51.142;17.178;2023-01-29T06:24:32;3.20;;;2.55;;
39970;SDS011;35425;51.142;17.178;2023-01-29T06:26:59;2.85;;;2.10;;
39970;SDS011;35425;51.142;17.178;2023-01-29T06:29:27;2.63;;;2.05;;
39970;SDS011;35425;51.142;17.178;2023-01-29T06:31:53;2.67;;;2.08;;
39970;SDS011;35425;51.142;17.178;2023-01-29T06:34:21;3.60;;;2.40;;
39970;SDS011;35425;51.142;17.178;2023-01-29T06:36:47;2.47;;;2.05;;
39970;SDS011;35425;51.142;17.178;2023-01-29T06:39:14;3.38;;;2.30;;
39970;SDS011;35425;51.142;17.178;2023-01-29T06:41:42;2.75;;;1.95;;
39970;SDS011;35425;51.142;17.178;2023-01-29T06:44:10;4.13;;;2.20;;
39970;SDS011;35425;51.142;17.178;2023-01-29T06:46:37;3.10;;;2.20;;
39970;SDS011;35425;51.142;17.178;2023-01-29T06:49:03;3.22;;;2.38;;
39970;SDS011;35425;51.142;17.178;2023-01-29T06:51:30;2.30;;;2.10;;
39970;SDS011;35425;51.142;17.178;2023-01-29T06:53:57;2.45;;;1.92;;
39970;SDS011;35425;51.142;17.178;2023-01-29T06:56:24;2.63;;;2.00;;
39970;SDS011;35425;51.142;17.178;2023-01-29T06:58:50;2.35;;;1.80;;
39970;SDS011;35425;51.142;17.178;2023-01-29T07:01:17;2.72;;;2.10;;
39970;SDS011;35425;51.142;17.178;2023-01-29T07:04:01;2.50;;;2.10;;
39970;SDS011;35425;51.142;17.178;2023-01-29T07:06:28;2.88;;;2.05;;
39970;SDS011;35425;51.142;17.178;2023-01-29T07:08:58;3.60;;;1.80;;
39970;SDS011;35425;51.142;17.178;2023-01-29T07:11:25;2.53;;;2.13;;
39970;SDS011;35425;51.142;17.178;2023-01-29T07:13:51;2.70;;;2.13;;
39970;SDS011;35425;51.142;17.178;2023-01-29T07:16:18;3.10;;;2.15;;
39970;SDS011;35425;51.142;17.178;2023-01-29T07:18:44;2.25;;;1.92;;
39970;SDS011;35425;51.142;17.178;2023-01-29T07:21:11;2.40;;;1.88;;
39970;SDS011;35425;51.142;17.178;2023-01-29T07:23:37;2.72;;;1.95;;
39970;SDS011;35425;51.142;17.178;2023-01-29T07:26:04;2.15;;;1.92;;
39970;SDS011;35425;51.142;17.178;2023-01-29T07:28:34;2.95;;;2.15;;
39970;SDS011;35425;51.142;17.178;2023-01-29T07:31:01;2.55;;;2.00;;
39970;SDS011;35425;51.142;17.178;2023-01-29T07:33:27;3.03;;;2.10;;
39970;SDS011;35425;51.142;17.178;2023-01-29T07:35:54;3.08;;;1.98;;
39970;SDS011;35425;51.142;17.178;2023-01-29T07:38:22;2.17;;;1.92;;
39970;SDS011;35425;51.142;17.178;2023-01-29T07:40:50;2.10;;;1.90;;
39970;SDS011;35425;51.142;17.178;2023-01-29T07:43:17;2.70;;;2.00;;
39970;SDS011;35425;51.142;17.178;2023-01-29T07:45:45;2.90;;;2.05;;
39970;SDS011;35425;51.142;17.178;2023-01-29T07:48:12;2.42;;;2.08;;
39970;SDS011;35425;51.142;17.178;2023-01-29T07:50:39;3.38;;;2.33;;
39970;SDS011;35425;51.142;17.178;2023-01-29T07:53:05;3.13;;;2.10;;
39970;SDS011;35425;51.142;17.178;2023-01-29T07:55:32;2.80;;;2.10;;
39970;SDS011;35425;51.142;17.178;2023-01-29T07:58:03;2.47;;;2.15;;
39970;SDS011;35425;51.142;17.178;2023-01-29T08:00:30;2.50;;;2.20;;
39970;SDS011;35425;51.142;17.178;2023-01-29T08:03:03;2.92;;;2.00;;
39970;SDS011;35425;51.142;17.178;2023-01-29T08:05:30;3.25;;;2.53;;
39970;SDS011;35425;51.142;17.178;2023-01-29T08:07:56;3.22;;;2.47;;
39970;SDS011;35425;51.142;17.178;2023-01-29T08:10:32;2.45;;;2.10;;
39970;SDS011;35425;51.142;17.178;2023-01-29T08:13:01;2.65;;;2.13;;
39970;SDS011;35425;51.142;17.178;2023-01-29T08:15:28;2.63;;;2.03;;
39970;SDS011;35425;51.142;17.178;2023-01-29T08:17:55;3.10;;;2.38;;
39970;SDS011;35425;51.142;17.178;2023-01-29T08:20:23;3.28;;;2.28;;
39970;SDS011;35425;51.142;17.178;2023-01-29T08:22:56;2.72;;;2.47;;
39970;SDS011;35425;51.142;17.178;2023-01-29T08:25:23;3.03;;;2.33;;
39970;SDS011;35425;51.142;17.178;2023-01-29T08:27:50;2.92;;;2.42;;
39970;SDS011;35425;51.142;17.178;2023-01-29T08:30:16;2.72;;;2.35;;
39970;SDS011;35425;51.142;17.178;2023-01-29T08:32:43;3.38;;;2.80;;
39970;SDS011;35425;51.142;17.178;2023-01-29T08:35:10;2.60;;;2.40;;
39970;SDS011;35425;51.142;17.178;2023-01-29T08:37:36;3.00;;;2.53;;
39970;SDS011;35425;51.142;17.178;2023-01-29T08:40:03;2.50;;;2.10;;
39970;SDS011;35425;51.142;17.178;2023-01-29T08:42:30;2.70;;;2.50;;
39970;SDS011;35425;51.142;17.178;2023-01-29T08:44:56;3.28;;;2.30;;
39970;SDS011;35425;51.142;17.178;2023-01-29T08:47:23;2.40;;;2.17;;
39970;SDS011;35425;51.142;17.178;2023-01-29T08:49:49;3.28;;;2.50;;
39970;SDS011;35425;51.142;17.178;2023-01-29T08:52:15;2.80;;;2.35;;
39970;SDS011;35425;51.142;17.178;2023-01-29T08:54:42;3.13;;;2.42;;
39970;SDS011;35425;51.142;17.178;2023-01-29T08:57:08;3.10;;;2.80;;
39970;SDS011;35425;51.142;17.178;2023-01-29T08:59:35;3.97;;;2.90;;
39970;SDS011;35425;51.142;17.178;2023-01-29T09:02:01;3.38;;;2.30;;
39970;SDS011;35425;51.142;17.178;2023-01-29T09:04:28;3.28;;;2.35;;
39970;SDS011;35425;51.142;17.178;2023-01-29T09:06:54;2.97;;;2.28;;
39970;SDS011;35425;51.142;17.178;2023-01-29T09:09:21;2.75;;;2.40;;
39970;SDS011;35425;51.142;17.178;2023-01-29T09:11:47;2.50;;;2.30;;
39970;SDS011;35425;51.142;17.178;2023-01-29T09:14:15;2.90;;;2.60;;
39970;SDS011;35425;51.142;17.178;2023-01-29T09:16:41;2.63;;;2.42;;
39970;SDS011;35425;51.142;17.178;2023-01-29T09:19:08;3.20;;;2.38;;
39970;SDS011;35425;51.142;17.178;2023-01-29T09:21:34;2.88;;;2.25;;
39970;SDS011;35425;51.142;17.178;2023-01-29T09:24:01;3.30;;;2.35;;
39970;SDS011;35425;51.142;17.178;2023-01-29T09:26:27;2.47;;;2.28;;
39970;SDS011;35425;51.142;17.178;2023-01-29T09:28:54;3.17;;;2.50;;
39970;SDS011;35425;51.142;17.178;2023-01-29T09:31:20;3.28;;;2.72;;
39970;SDS011;35425;51.142;17.178;2023-01-29T09:33:47;3.05;;;2.40;;
39970;SDS011;35425;51.142;17.178;2023-01-29T09:36:13;2.60;;;2.22;;
39970;SDS011;35425;51.142;17.178;2023-01-29T09:38:40;2.55;;;2.10;;
39970;SDS011;35425;51.142;17.178;2023-01-29T09:41:11;2.72;;;2.47;;
39970;SDS011;35425;51.142;17.178;2023-01-29T09:46:32;2.60;;;2.38;;
39970;SDS011;35425;51.142;17.178;2023-01-29T09:49:07;3.80;;;2.53;;
39970;SDS011;35425;51.142;17.178;2023-01-29T09:51:39;2.97;;;2.42;;
39970;SDS011;35425;51.142;17.178;2023-01-29T09:54:13;3.03;;;2.60;;
39970;SDS011;35425;51.142;17.178;2023-01-29T09:56:42;2.55;;;2.30;;
39970;SDS011;35425;51.142;17.178;2023-01-29T09:59:09;2.65;;;2.45;;
39970;SDS011;35425;51.142;17.178;2023-01-29T10:01:54;3.83;;;2.90;;
39970;SDS011;35425;51.142;17.178;2023-01-29T10:04:27;2.92;;;2.50;;
39970;SDS011;35425;51.142;17.178;2023-01-29T10:09:46;3.35;;;2.50;;
39970;SDS011;35425;51.142;17.178;2023-01-29T10:12:22;2.55;;;2.25;;
39970;SDS011;35425;51.142;17.178;2023-01-29T10:15:05;3.80;;;2.70;;
39970;SDS011;35425;51.142;17.178;2023-01-29T10:23:08;2.80;;;2.60;;
39970;SDS011;35425;51.142;17.178;2023-01-29T10:25:39;3.33;;;2.65;;
39970;SDS011;35425;51.142;17.178;2023-01-29T10:28:13;3.35;;;2.80;;
39970;SDS011;35425;51.142;17.178;2023-01-29T10:30:43;4.00;;;3.40;;
39970;SDS011;35425;51.142;17.178;2023-01-29T10:33:12;2.83;;;2.63;;
39970;SDS011;35425;51.142;17.178;2023-01-29T10:35:42;3.22;;;2.92;;
39970;SDS011;35425;51.142;17.178;2023-01-29T10:40:42;4.47;;;3.45;;
39970;SDS011;35425;51.142;17.178;2023-01-29T10:43:16;4.45;;;3.13;;
39970;SDS011;35425;51.142;17.178;2023-01-29T10:45:48;4.35;;;3.55;;
39970;SDS011;35425;51.142;17.178;2023-01-29T10:48:29;3.42;;;3.08;;
39970;SDS011;35425;51.142;17.178;2023-01-29T10:59:02;4.03;;;3.40;;
39970;SDS011;35425;51.142;17.178;2023-01-29T11:01:30;3.10;;;2.80;;
39970;SDS011;35425;51.142;17.178;2023-01-29T11:04:01;3.88;;;3.42;;
39970;SDS011;35425;51.142;17.178;2023-01-29T11:06:30;3.60;;;3.15;;
39970;SDS011;35425;51.142;17.178;2023-01-29T11:09:06;3.67;;;3.13;;
39970;SDS011;35425;51.142;17.178;2023-01-29T11:11:56;3.17;;;2.88;;
39970;SDS011;35425;51.142;17.178;2023-01-29T11:14:27;3.95;;;3.30;;
39970;SDS011;35425;51.142;17.178;2023-01-29T11:16:55;3.35;;;3.05;;
39970;SDS011;35425;51.142;17.178;2023-01-29T11:19:40;3.72;;;3.00;;
39970;SDS011;35425;51.142;17.178;2023-01-29T11:22:15;3.90;;;3.50;;
39970;SDS011;35425;51.142;17.178;2023-01-29T11:24:42;3.28;;;2.97;;
39970;SDS011;35425;51.142;17.178;2023-01-29T11:27:44;3.53;;;2.83;;
39970;SDS011;35425;51.142;17.178;2023-01-29T11:30:02;4.97;;;3.28;;
39970;SDS011;35425;51.142;17.178;2023-01-29T11:32:33;3.65;;;2.95;;
39970;SDS011;35425;51.142;17.178;2023-01-29T11:37:36;3.50;;;3.20;;
39970;SDS011;35425;51.142;17.178;2023-01-29T11:42:42;4.15;;;3.30;;
39970;SDS011;35425;51.142;17.178;2023-01-29T11:45:30;3.72;;;3.03;;
39970;SDS011;35425;51.142;17.178;2023-01-29T11:48:01;4.50;;;3.17;;
39970;SDS011;35425;51.142;17.178;2023-01-29T11:50:28;4.47;;;3.00;;
39970;SDS011;35425;51.142;17.178;2023-01-29T11:52:55;4.28;;;3.20;;
39970;SDS011;35425;51.142;17.178;2023-01-29T11:55:24;3.72;;;3.22;;
39970;SDS011;35425;51.142;17.178;2023-01-29T12:00:25;3.25;;;2.90;;
39970;SDS011;35425;51.142;17.178;2023-01-29T12:05:28;4.32;;;3.30;;
39970;SDS011;35425;51.142;17.178;2023-01-29T12:07:57;3.70;;;3.15;;
39970;SDS011;35425;51.142;17.178;2023-01-29T12:10:34;3.65;;;2.95;;
39970;SDS011;35425;51.142;17.178;2023-01-29T12:15:34;3.78;;;2.92;;
39970;SDS011;35425;51.142;17.178;2023-01-29T12:18:06;3.42;;;2.78;;
39970;SDS011;35425;51.142;17.178;2023-01-29T12:20:40;3.85;;;2.97;;
39970;SDS011;35425;51.142;17.178;2023-01-29T12:23:20;4.05;;;3.10;;
39970;SDS011;35425;51.142;17.178;2023-01-29T12:26:00;3.58;;;3.10;;
39970;SDS011;35425;51.142;17.178;2023-01-29T12:31:04;3.97;;;3.03;;
39970;SDS011;35425;51.142;17.178;2023-01-29T12:36:06;3.83;;;2.85;;
39970;SDS011;35425;51.142;17.178;2023-01-29T12:38:36;3.53;;;2.50;;
39970;SDS011;35425;51.142;17.178;2023-01-29T12:41:07;5.00;;;3.13;;
39970;SDS011;35425;51.142;17.178;2023-01-29T12:43:37;3.03;;;2.58;;
39970;SDS011;35425;51.142;17.178;2023-01-29T12:46:17;3.53;;;2.92;;
39970;SDS011;35425;51.142;17.178;2023-01-29T12:48:49;3.50;;;2.85;;
39970;SDS011;35425;51.142;17.178;2023-01-29T12:51:19;4.35;;;2.95;;
39970;SDS011;35425;51.142;17.178;2023-01-29T12:58:53;3.75;;;2.83;;
39970;SDS011;35425;51.142;17.178;2023-01-29T13:01:33;4.40;;;2.97;;
39970;SDS011;35425;51.142;17.178;2023-01-29T13:04:02;4.40;;;3.05;;
39970;SDS011;35425;51.142;17.178;2023-01-29T13:06:41;5.18;;;3.03;;
39970;SDS011;35425;51.142;17.178;2023-01-29T13:09:13;5.03;;;3.80;;
39970;SDS011;35425;51.142;17.178;2023-01-29T13:14:30;4.20;;;3.35;;
39970;SDS011;35425;51.142;17.178;2023-01-29T13:19:42;4.72;;;3.53;;
39970;SDS011;35425;51.142;17.178;2023-01-29T13:22:32;4.78;;;3.35;;
39970;SDS011;35425;51.142;17.178;2023-01-29T13:24:57;4.20;;;3.20;;
39970;SDS011;35425;51.142;17.178;2023-01-29T13:27:32;5.13;;;3.35;;
39970;SDS011;35425;51.142;17.178;2023-01-29T13:29:59;5.03;;;3.42;;
39970;SDS011;35425;51.142;17.178;2023-01-29T13:32:26;4.75;;;3.45;;
39970;SDS011;35425;51.142;17.178;2023-01-29T13:34:54;5.68;;;3.72;;
39970;SDS011;35425;51.142;17.178;2023-01-29T13:37:25;5.90;;;4.00;;
39970;SDS011;35425;51.142;17.178;2023-01-29T13:39:53;5.35;;;4.22;;
39970;SDS011;35425;51.142;17.178;2023-01-29T13:42:22;6.70;;;4.10;;
39970;SDS011;35425;51.142;17.178;2023-01-29T13:44:49;5.25;;;3.58;;
39970;SDS011;35425;51.142;17.178;2023-01-29T13:47:29;6.90;;;4.45;;
39970;SDS011;35425;51.142;17.178;2023-01-29T13:52:40;7.57;;;4.45;;
39970;SDS011;35425;51.142;17.178;2023-01-29T14:10:21;9.25;;;6.10;;
39970;SDS011;35425;51.142;17.178;2023-01-29T14:12:50;10.55;;;6.18;;
39970;SDS011;35425;51.142;17.178;2023-01-29T14:15:23;11.30;;;6.30;;
39970;SDS011;35425;51.142;17.178;2023-01-29T14:17:54;11.32;;;6.25;;
39970;SDS011;35425;51.142;17.178;2023-01-29T14:21:04;11.85;;;6.45;;
39970;SDS011;35425;51.142;17.178;2023-01-29T14:26:04;10.82;;;6.97;;
39970;SDS011;35425;51.142;17.178;2023-01-29T14:28:32;10.85;;;6.55;;
39970;SDS011;35425;51.142;17.178;2023-01-29T14:30:59;12.23;;;7.22;;
39970;SDS011;35425;51.142;17.178;2023-01-29T14:33:35;12.30;;;7.28;;
39970;SDS011;35425;51.142;17.178;2023-01-29T14:36:03;12.95;;;7.30;;
39970;SDS011;35425;51.142;17.178;2023-01-29T14:38:33;12.68;;;7.25;;
39970;SDS011;35425;51.142;17.178;2023-01-29T14:41:04;10.90;;;6.35;;
39970;SDS011;35425;51.142;17.178;2023-01-29T14:43:32;14.48;;;7.35;;
39970;SDS011;35425;51.142;17.178;2023-01-29T14:48:57;13.20;;;7.35;;
39970;SDS011;35425;51.142;17.178;2023-01-29T14:51:23;11.82;;;7.28;;
39970;SDS011;35425;51.142;17.178;2023-01-29T14:54:00;12.63;;;7.30;;
39970;SDS011;35425;51.142;17.178;2023-01-29T14:59:14;13.13;;;6.57;;
39970;SDS011;35425;51.142;17.178;2023-01-29T15:01:54;12.75;;;6.80;;
39970;SDS011;35425;51.142;17.178;2023-01-29T15:04:22;11.75;;;6.97;;
39970;SDS011;35425;51.142;17.178;2023-01-29T15:07:02;11.57;;;6.80;;
39970;SDS011;35425;51.142;17.178;2023-01-29T15:09:41;11.02;;;6.72;;
39970;SDS011;35425;51.142;17.178;2023-01-29T15:19:55;11.75;;;6.60;;
39970;SDS011;35425;51.142;17.178;2023-01-29T15:22:23;10.65;;;6.80;;
39970;SDS011;35425;51.142;17.178;2023-01-29T15:25:02;11.05;;;7.28;;
39970;SDS011;35425;51.142;17.178;2023-01-29T15:27:28;10.73;;;6.25;;
39970;SDS011;35425;51.142;17.178;2023-01-29T15:30:01;11.38;;;6.65;;
39970;SDS011;35425;51.142;17.178;2023-01-29T15:35:33;10.57;;;7.07;;
39970;SDS011;35425;51.142;17.178;2023-01-29T15:38:02;11.02;;;6.47;;
39970;SDS011;35425;51.142;17.178;2023-01-29T15:40:28;9.88;;;6.35;;
39970;SDS011;35425;51.142;17.178;2023-01-29T15:42:55;9.98;;;6.43;;
39970;SDS011;35425;51.142;17.178;2023-01-29T15:45:31;8.55;;;5.97;;
39970;SDS011;35425;51.142;17.178;2023-01-29T15:50:27;9.13;;;6.10;;
39970;SDS011;35425;51.142;17.178;2023-01-29T15:52:53;10.23;;;5.90;;
39970;SDS011;35425;51.142;17.178;2023-01-29T15:55:21;9.32;;;5.65;;
39970;SDS011;35425;51.142;17.178;2023-01-29T15:57:48;11.02;;;5.93;;
39970;SDS011;35425;51.142;17.178;2023-01-29T16:00:19;9.25;;;6.05;;
39970;SDS011;35425;51.142;17.178;2023-01-29T16:02:47;9.23;;;6.13;;
39970;SDS011;35425;51.142;17.178;2023-01-29T16:05:17;8.50;;;5.78;;
39970;SDS011;35425;51.142;17.178;2023-01-29T16:07:45;10.23;;;6.55;;
39970;SDS011;35425;51.142;17.178;2023-01-29T16:10:19;9.70;;;6.10;;
39970;SDS011;35425;51.142;17.178;2023-01-29T16:12:47;8.45;;;5.82;;
39970;SDS011;35425;51.142;17.178;2023-01-29T16:15:19;8.95;;;6.07;;
39970;SDS011;35425;51.142;17.178;2023-01-29T16:17:46;10.20;;;5.50;;
39970;SDS011;35425;51.142;17.178;2023-01-29T16:20:19;8.82;;;5.68;;
39970;SDS011;35425;51.142;17.178;2023-01-29T16:22:46;7.95;;;5.25;;
39970;SDS011;35425;51.142;17.178;2023-01-29T16:25:13;7.70;;;5.75;;
39970;SDS011;35425;51.142;17.178;2023-01-29T16:27:40;7.45;;;5.53;;
39970;SDS011;35425;51.142;17.178;2023-01-29T16:30:09;8.13;;;5.72;;
39970;SDS011;35425;51.142;17.178;2023-01-29T16:32:38;7.05;;;5.55;;
39970;SDS011;35425;51.142;17.178;2023-01-29T16:35:06;7.45;;;5.75;;
39970;SDS011;35425;51.142;17.178;2023-01-29T16:37:33;7.82;;;5.72;;
39970;SDS011;35425;51.142;17.178;2023-01-29T16:40:12;7.78;;;5.35;;
39970;SDS011;35425;51.142;17.178;2023-01-29T16:42:41;8.02;;;5.82;;
39970;SDS011;35425;51.142;17.178;2023-01-29T16:45:27;8.40;;;6.18;;
39970;SDS011;35425;51.142;17.178;2023-01-29T16:48:00;7.65;;;5.90;;
39970;SDS011;35425;51.142;17.178;2023-01-29T16:50:30;7.90;;;5.55;;
39970;SDS011;35425;51.142;17.178;2023-01-29T16:53:20;9.18;;;6.30;;
39970;SDS011;35425;51.142;17.178;2023-01-29T16:55:48;6.80;;;5.88;;
39970;SDS011;35425;51.142;17.178;2023-01-29T16:58:20;7.95;;;5.60;;